TimeCDT,TemperatureF,Dew PointF,Humidity,Sea Level PressureIn,VisibilityMPH,Wind Direction,Wind SpeedMPH,Gust SpeedMPH,PrecipitationIn,Events,Conditions,WindDirDegrees,DateUTC
12:53 AM,39.0,36.0,89,30.08,10.0,North,3.5,-,N/A,,Mostly Cloudy,360,2012-10-22 05:53:00
1:53 AM,37.0,35.1,93,30.09,10.0,North,5.8,-,N/A,,Scattered Clouds,360,2012-10-22 06:53:00
2:53 AM,37.0,35.1,93,30.09,10.0,North,3.5,-,N/A,,Mostly Cloudy,350,2012-10-22 07:53:00
3:53 AM,36.0,34.0,93,30.10,10.0,Calm,Calm,-,N/A,,Mostly Cloudy,0,2012-10-22 08:53:00
4:53 AM,36.0,34.0,93,30.12,10.0,NW,3.5,-,N/A,,Mostly Cloudy,310,2012-10-22 09:53:00
5:53 AM,36.0,34.0,93,30.13,10.0,NW,5.8,-,N/A,,Overcast,320,2012-10-22 10:53:00
7:53 AM,36.0,33.1,89,30.12,10.0,North,6.9,-,N/A,,Overcast,360,2012-10-22 12:53:00
8:53 AM,37.0,33.1,86,30.13,10.0,North,8.1,-,N/A,,Overcast,10,2012-10-22 13:53:00
9:53 AM,37.9,34.0,86,30.13,10.0,NNE,5.8,-,N/A,,Overcast,20,2012-10-22 14:53:00
10:53 AM,41.0,36.0,82,30.13,10.0,NNE,9.2,-,N/A,,Overcast,20,2012-10-22 15:53:00
11:53 AM,42.1,36.0,79,30.12,10.0,North,10.4,-,N/A,,Overcast,10,2012-10-22 16:53:00
12:53 PM,44.1,37.0,76,30.11,10.0,NNE,10.4,-,N/A,,Overcast,20,2012-10-22 17:53:00
1:53 PM,46.0,37.9,73,30.08,10.0,NNE,13.8,-,N/A,,Overcast,20,2012-10-22 18:53:00
2:53 PM,45.0,39.0,80,30.06,10.0,NNE,12.7,-,N/A,,Overcast,30,2012-10-22 19:53:00
3:53 PM,45.0,39.0,80,30.04,10.0,NNE,16.1,-,N/A,,Overcast,20,2012-10-22 20:53:00
4:53 PM,44.1,39.0,82,30.03,10.0,NNE,13.8,-,N/A,,Overcast,30,2012-10-22 21:53:00
5:53 PM,44.6,39.2,81,29.99,10.0,NNE,13.8,-,N/A,,Overcast,30,2012-10-22 22:53:00
6:53 PM,43.0,39.9,89,30.01,10.0,NE,10.4,-,N/A,,Mostly Cloudy,40,2012-10-22 23:53:00
7:53 PM,44.1,39.9,85,29.99,10.0,NE,11.5,-,N/A,,Overcast,40,2012-10-23 00:53:00
8:53 PM,45.0,39.9,82,29.99,10.0,ENE,9.2,-,0.00,,Overcast,60,2012-10-23 01:53:00
9:53 PM,45.0,39.0,80,29.97,10.0,NE,11.5,-,0.00,,Overcast,50,2012-10-23 02:53:00
10:53 PM,45.0,39.0,80,29.95,10.0,NE,8.1,-,N/A,,Overcast,50,2012-10-23 03:53:00
11:53 PM,44.6,39.2,81,29.89,10.0,ENE,6.9,-,N/A,,Overcast,60,2012-10-23 04:53:00